createdAt,value
2019-06-20T06:36:43.379Z,15.27
2019-06-20T06:39:43.623Z,15.30
2019-06-20T06:42:28.634Z,16.33
2019-06-20T06:45:35.487Z,16.17
2019-06-20T06:48:42.725Z,15.03
2019-06-20T06:51:27.885Z,14.07
2019-06-20T06:54:31.639Z,16.07
2019-06-20T06:57:43.551Z,14.87
2019-06-20T07:00:52.204Z,17.53
2019-06-20T07:03:55.285Z,13.53
2019-06-20T07:06:52.161Z,13.57
2019-06-20T07:09:47.260Z,12.47
2019-06-20T07:12:48.901Z,12.13
2019-06-20T07:15:46.342Z,10.33
2019-06-20T07:18:57.484Z,11.97
2019-06-20T07:21:56.083Z,11.57
2019-06-20T07:24:56.889Z,10.67
2019-06-20T07:27:51.290Z,10.97
2019-06-20T07:30:51.519Z,9.13
2019-06-20T07:34:01.949Z,9.70
2019-06-20T07:37:12.654Z,8.90
2019-06-20T07:40:17.692Z,9.00
2019-06-20T07:43:32.673Z,8.53
2019-06-20T07:46:26.294Z,10.20
2019-06-20T07:49:24.773Z,11.07
2019-06-20T07:52:27.637Z,9.50
2019-06-20T07:55:28.554Z,9.03
2019-06-20T07:58:17.424Z,9.47
2019-06-20T08:01:16.188Z,11.07
2019-06-20T08:04:23.011Z,8.87
2019-06-20T08:07:31.597Z,8.50
2019-06-20T08:10:37.849Z,8.03
2019-06-20T08:13:54.592Z,8.63
2019-06-20T08:16:57.738Z,8.90
2019-06-20T08:20:03.420Z,8.67
2019-06-20T08:22:51.327Z,9.70
2019-06-20T08:25:33.829Z,8.60
2019-06-20T08:28:34.824Z,8.77
2019-06-20T08:31:51.619Z,8.80
2019-06-20T08:35:02.414Z,7.77
2019-06-20T08:38:13.602Z,9.03
2019-06-20T08:41:20.680Z,8.77
2019-06-20T08:44:36.249Z,7.80
2019-06-20T08:47:23.861Z,8.93
2019-06-20T08:50:12.023Z,8.10
2019-06-20T08:53:18.749Z,8.43
2019-06-20T08:56:11.053Z,8.33
2019-06-20T08:59:23.981Z,9.10
2019-06-20T09:02:20.143Z,9.33
2019-06-20T09:05:20.149Z,10.87
2019-06-20T09:08:22.170Z,10.77
2019-06-20T09:11:16.745Z,9.90
2019-06-20T09:14:17.420Z,10.63
2019-06-20T09:17:10.589Z,10.93
2019-06-20T09:20:20.445Z,11.70
2019-06-20T09:23:28.019Z,11.10
2019-06-20T09:26:42.060Z,11.23
2019-06-20T09:29:48.957Z,10.93
2019-06-20T09:32:59.993Z,11.47
2019-06-20T09:36:17.348Z,10.97
2019-06-20T09:39:23.481Z,11.73
2019-06-20T09:42:21.905Z,11.50
2019-06-20T09:45:32.700Z,13.23
2019-06-20T09:48:32.628Z,12.87
2019-06-20T09:51:36.609Z,12.83
2019-06-20T09:54:50.118Z,12.07
2019-06-20T09:57:58.295Z,11.30
2019-06-20T10:00:57.437Z,12.27
2019-06-20T10:03:50.434Z,11.80
2019-06-20T10:06:56.568Z,12.30
2019-06-20T10:09:58.842Z,11.73
2019-06-20T10:13:06.867Z,10.07
2019-06-20T10:16:00.739Z,10.53
2019-06-20T10:19:14.724Z,9.97
2019-06-20T10:22:20.415Z,9.43
2019-06-20T10:25:32.576Z,10.90
2019-06-20T10:28:44.623Z,10.40
2019-06-20T10:31:45.748Z,11.10
2019-06-20T10:34:32.870Z,11.10
2019-06-20T10:37:11.768Z,12.57
2019-06-20T10:39:59.242Z,14.20
2019-06-20T10:42:50.668Z,12.87
2019-06-20T10:45:47.457Z,14.17
2019-06-20T10:48:53.782Z,14.13
2019-06-20T10:51:44.029Z,14.30
2019-06-20T10:54:26.402Z,14.87
2019-06-20T10:57:35.972Z,15.17
2019-06-20T11:00:44.509Z,15.50
2019-06-20T11:03:51.274Z,15.87
2019-06-20T11:06:57.199Z,15.57
2019-06-20T11:10:05.302Z,13.80
2019-06-20T11:13:20.139Z,14.23
2019-06-20T11:16:28.486Z,12.30
2019-06-20T11:19:43.772Z,12.73
2019-06-20T11:22:49.215Z,13.63
2019-06-20T11:25:54.298Z,11.43
2019-06-20T11:29:00.446Z,11.73
2019-06-20T11:32:10.271Z,12.97
2019-06-20T11:35:23.817Z,10.80
2019-06-20T11:38:33.217Z,12.13
2019-06-20T11:41:46.413Z,13.67
2019-06-20T11:44:53.797Z,13.33
2019-06-20T11:47:57.863Z,9.23
2019-06-20T11:51:03.016Z,11.30
2019-06-20T11:54:10.215Z,10.40
2019-06-20T11:57:08.634Z,11.10
2019-06-20T12:00:18.039Z,10.97
2019-06-20T12:03:23.921Z,11.77
2019-06-20T12:06:14.132Z,9.67
2019-06-20T12:09:17.408Z,9.47
2019-06-20T12:12:25.172Z,9.93
2019-06-20T12:15:36.243Z,9.27
2019-06-20T12:18:43.364Z,9.77
2019-06-20T12:21:49.286Z,10.40
2019-06-20T12:24:45.025Z,11.50
2019-06-20T12:27:45.230Z,12.07
2019-06-20T12:30:41.586Z,13.93
2019-06-20T12:33:41.028Z,13.60
2019-06-20T12:36:44.817Z,10.13
2019-06-20T12:39:40.401Z,10.80
2019-06-20T12:42:39.150Z,10.10
2019-06-20T12:45:49.553Z,11.63
2019-06-20T12:49:03.912Z,12.93
2019-06-20T12:51:56.152Z,10.80
2019-06-20T12:54:55.921Z,12.07
2019-06-20T12:57:57.151Z,12.97
2019-06-20T13:01:03.692Z,12.93
2019-06-20T13:03:56.676Z,10.13
2019-06-20T13:06:50.345Z,8.10
2019-06-20T13:09:40.478Z,11.33
2019-06-20T13:12:46.195Z,10.33
2019-06-20T13:15:34.901Z,11.10
2019-06-20T13:18:35.663Z,14.70
2019-06-20T13:21:18.912Z,10.77
2019-06-20T13:23:50.115Z,11.87
2019-06-20T13:26:23.431Z,12.93
2019-06-20T13:29:04.495Z,13.90
2019-06-20T13:32:04.213Z,11.43
2019-06-20T13:34:58.022Z,12.30
2019-06-20T13:38:01.331Z,9.27
2019-06-20T13:40:55.487Z,11.20
2019-06-20T13:43:45.353Z,10.57
2019-06-20T13:46:32.825Z,10.47
2019-06-20T13:49:29.392Z,9.27
2019-06-20T13:52:29.138Z,12.23
2019-06-20T13:55:28.605Z,10.27
2019-06-20T13:58:24.325Z,11.20
2019-06-20T14:01:10.609Z,8.90
2019-06-20T14:04:04.879Z,8.30
2019-06-20T14:06:57.037Z,7.60
2019-06-20T14:09:57.947Z,10.73
2019-06-20T14:12:50.541Z,8.67
2019-06-20T14:15:53.715Z,8.67
2019-06-20T14:19:01.677Z,11.60
2019-06-20T14:22:07.338Z,4.70
2019-06-20T14:24:53.675Z,5.63
2019-06-20T14:27:53.984Z,4.77
2019-06-20T14:30:37.300Z,7.80
2019-06-20T14:33:25.579Z,3.63
2019-06-20T14:36:30.339Z,6.23
2019-06-20T14:39:34.221Z,4.30
2019-06-20T14:42:33.146Z,4.17
2019-06-20T14:45:38.007Z,7.13
2019-06-20T14:48:39.859Z,8.57
2019-06-20T14:51:35.514Z,4.13
2019-06-20T14:54:45.900Z,5.40
2019-06-20T14:58:02.741Z,4.67
2019-06-20T15:01:05.667Z,3.23
2019-06-20T15:04:14.488Z,5.13
2019-06-20T15:07:30.040Z,4.03
2019-06-20T15:10:43.855Z,5.03
2019-06-20T15:13:53.471Z,4.43
2019-06-20T15:16:51.333Z,2.80
2019-06-20T15:19:56.102Z,3.53
2019-06-20T15:23:03.883Z,2.73
2019-06-20T15:25:52.455Z,4.43
2019-06-20T15:28:57.184Z,6.20
2019-06-20T15:31:50.540Z,2.80
2019-06-20T15:34:29.215Z,5.43
2019-06-20T15:37:30.999Z,2.33
2019-06-20T15:40:22.993Z,3.23
2019-06-20T15:43:24.194Z,3.77
2019-06-20T15:46:21.276Z,3.37
2019-06-20T15:49:16.201Z,2.27
2019-06-20T15:52:02.771Z,2.50
2019-06-20T15:54:55.993Z,3.27
2019-06-20T15:57:46.406Z,2.50
2019-06-20T16:00:28.487Z,3.67
2019-06-20T16:03:10.622Z,1.50
2019-06-20T16:06:02.795Z,2.13
2019-06-20T16:08:47.459Z,2.77
2019-06-20T16:11:39.337Z,2.47
2019-06-20T16:14:33.427Z,2.20
2019-06-20T16:17:23.731Z,2.57
2019-06-20T16:20:18.833Z,3.97
2019-06-20T16:23:11.045Z,3.10
2019-06-20T16:26:05.202Z,3.93
2019-06-20T16:28:59.369Z,2.17
2019-06-20T16:31:53.478Z,4.77
2019-06-20T16:34:43.386Z,2.97
2019-06-20T16:37:26.931Z,2.73
2019-06-20T16:40:35.055Z,4.57
2019-06-20T16:43:30.445Z,4.53
2019-06-20T16:46:24.429Z,4.93
2019-06-20T16:49:25.432Z,3.20
2019-06-20T16:52:36.147Z,1.70
2019-06-20T16:55:43.391Z,4.27
2019-06-20T16:58:51.479Z,3.93
2019-06-20T17:01:55.048Z,2.97
2019-06-20T17:05:00.026Z,4.27
2019-06-20T17:08:04.767Z,2.00
2019-06-20T17:11:11.136Z,1.40
2019-06-20T17:14:12.153Z,4.17
2019-06-20T17:17:19.004Z,3.73
2019-06-20T17:20:18.457Z,2.07
2019-06-20T17:23:15.094Z,2.37
2019-06-20T17:26:18.125Z,3.07
2019-06-20T17:29:17.220Z,2.47
2019-06-20T17:32:16.689Z,1.30
2019-06-20T17:35:22.304Z,1.47
2019-06-20T17:38:20.687Z,2.53
2019-06-20T17:41:27.710Z,3.57
2019-06-20T17:44:40.204Z,2.03
2019-06-20T17:47:38.228Z,2.83
2019-06-20T17:50:38.158Z,2.37
2019-06-20T17:53:30.818Z,1.63
2019-06-20T17:56:37.534Z,2.60
2019-06-20T17:59:43.880Z,4.97
2019-06-20T18:02:23.715Z,3.13
2019-06-20T18:05:09.722Z,4.20
2019-06-20T18:08:15.385Z,1.40
2019-06-20T18:11:14.063Z,4.67
2019-06-20T18:14:16.182Z,4.50
2019-06-20T18:17:19.885Z,3.33
2019-06-20T18:20:22.201Z,4.03
2019-06-20T18:23:05.817Z,4.33
2019-06-20T18:26:01.485Z,5.63
2019-06-20T18:28:38.067Z,4.17
2019-06-20T18:31:16.071Z,4.17
2019-06-20T18:34:26.406Z,5.10
2019-06-20T18:37:10.763Z,3.20
2019-06-20T18:40:18.133Z,5.20
2019-06-20T18:43:11.167Z,3.67
2019-06-20T18:46:09.604Z,3.30
2019-06-20T18:49:10.267Z,3.20
2019-06-20T18:52:09.813Z,2.97
2019-06-20T18:55:16.991Z,4.83
2019-06-20T18:58:18.292Z,4.63
2019-06-20T19:01:20.589Z,3.50
2019-06-20T19:04:25.925Z,2.90
2019-06-20T19:07:40.540Z,3.37
2019-06-20T19:10:44.306Z,2.83
2019-06-20T19:13:44.568Z,2.17
2019-06-20T19:16:45.422Z,2.53
2019-06-20T19:19:50.588Z,3.13
2019-06-20T19:22:46.387Z,1.70
2019-06-20T19:25:36.451Z,2.93
2019-06-20T19:28:44.441Z,2.73
2019-06-20T19:31:48.596Z,4.50
2019-06-20T19:35:00.949Z,2.03
2019-06-20T19:37:53.529Z,2.23
2019-06-20T19:40:56.229Z,2.27
2019-06-20T19:44:13.814Z,5.00
2019-06-20T19:47:24.949Z,3.47
2019-06-20T19:50:30.346Z,2.77
2019-06-20T19:53:34.816Z,3.33
2019-06-20T19:56:42.908Z,2.73
2019-06-20T19:59:46.858Z,3.87
2019-06-20T20:02:53.060Z,3.30
2019-06-20T20:05:48.570Z,3.73
2019-06-20T20:08:58.321Z,3.77
2019-06-20T20:12:06.308Z,3.70
2019-06-20T20:15:15.978Z,2.73
2019-06-20T20:18:23.293Z,5.13
2019-06-20T20:21:28.811Z,2.57
2019-06-20T20:24:32.763Z,4.03
2019-06-20T20:27:38.427Z,4.47
2019-06-20T20:30:37.390Z,4.87
2019-06-20T20:33:48.517Z,3.53
2019-06-20T20:36:59.701Z,3.63
2019-06-20T20:40:20.573Z,4.27
2019-06-20T20:43:42.773Z,4.47
2019-06-20T20:47:01.663Z,4.57
2019-06-20T20:50:04.768Z,3.07
2019-06-20T20:52:47.969Z,3.47
2019-06-20T20:55:39.591Z,2.47
2019-06-20T20:58:23.107Z,3.93
2019-06-20T21:01:18.705Z,5.20
2019-06-20T21:04:26.981Z,4.17
2019-06-20T21:07:33.834Z,1.50
2019-06-20T21:10:50.393Z,2.90
2019-06-20T21:14:00.419Z,2.70
2019-06-20T21:17:11.011Z,3.73
2019-06-20T21:20:13.614Z,2.80
2019-06-20T21:23:24.799Z,4.47
2019-06-20T21:26:47.930Z,2.50
2019-06-20T21:29:26.558Z,2.97
2019-06-20T21:32:36.418Z,2.97
2019-06-20T21:35:50.193Z,3.03
2019-06-20T21:39:03.969Z,3.43
2019-06-20T21:42:08.806Z,4.47
2019-06-20T21:45:24.238Z,5.60
2019-06-20T21:48:39.442Z,4.47
2019-06-20T21:52:02.708Z,5.27
2019-06-20T21:55:11.990Z,5.87
2019-06-20T21:58:10.344Z,2.90
2019-06-20T22:01:12.411Z,3.57
2019-06-20T22:04:00.360Z,5.33
2019-06-20T22:06:47.415Z,5.00
2019-06-20T22:09:54.818Z,5.53
2019-06-20T22:13:05.533Z,4.23
2019-06-20T22:16:12.833Z,7.13
2019-06-20T22:19:18.729Z,3.60
2019-06-20T22:25:46.008Z,5.13
2019-06-20T22:28:50.175Z,7.50
2019-06-20T22:31:56.052Z,3.83
2019-06-20T22:34:47.362Z,3.90
2019-06-20T22:38:04.205Z,4.47
2019-06-20T22:41:17.823Z,5.03
2019-06-20T22:44:27.737Z,4.30
2019-06-20T22:47:24.935Z,5.03
2019-06-20T22:50:22.766Z,3.77
2019-06-20T22:53:14.251Z,5.47
2019-06-20T22:56:20.693Z,3.93
2019-06-20T22:59:10.122Z,5.73
2019-06-20T23:02:15.773Z,6.03
2019-06-20T23:05:23.929Z,6.57
2019-06-20T23:08:34.906Z,6.23
2019-06-20T23:11:44.994Z,5.60
2019-06-20T23:14:52.086Z,4.40
2019-06-20T23:17:47.061Z,5.30
2019-06-20T23:20:25.617Z,7.37
2019-06-20T23:23:09.581Z,8.00
2019-06-20T23:26:03.432Z,8.93
2019-06-20T23:29:09.502Z,4.03
2019-06-20T23:32:10.471Z,6.53
2019-06-20T23:35:24.443Z,6.07
2019-06-20T23:38:35.586Z,4.63
2019-06-20T23:41:43.613Z,4.83
2019-06-20T23:44:50.171Z,4.33
2019-06-20T23:47:51.120Z,7.03
2019-06-20T23:51:24.503Z,5.53
2019-06-20T23:53:59.471Z,4.67
2019-06-20T23:56:35.478Z,4.37
2019-06-20T23:59:28.797Z,5.93
